Time;durP1;ratioP1;P1;durP2;ratioP2;P2;SDS_P1;SDS_P2;PMS_P1;PMS_P2;Temp;Humidity;BMP_temperature;BMP_pressure;BME280_temperature;BME280_humidity;BME280_pressure;Samples;Min_cycle;Max_cycle;Signal;HPM_P1;HPM_P2
2022/12/10 07:03:50;;;;;;;;;;;;;;;6.99;75.33;95584.44;4214274;27;10445;-72
2022/12/10 07:05:53;;;;;;;;;;;;;;;7.29;74.82;95575.19;4215072;28;5677;-72
2022/12/10 07:07:56;;;;;;;;;;;;;;;7.53;74.19;95581.63;4214850;28;5701;-72
2022/12/10 07:09:59;;;;;;;;;;;;;;;7.72;73.94;95585.28;4214587;28;5171;-72
2022/12/10 07:12:01;;;;;;;;;;;;;;;7.85;73.50;95590.50;4214408;28;5785;-72
2022/12/10 07:14:04;;;;;;;;;;;;;;;7.99;73.40;95601.81;4214894;28;5855;-71
2022/12/10 07:16:13;;;;;;;;;;;;;;;8.07;73.13;95588.44;4214613;28;5773;-73
2022/12/10 07:18:16;;;;;;;;;;;;;;;8.13;72.93;95592.88;4214728;28;5682;-73
2022/12/10 07:20:20;;;;;;;;;;;;;;;8.18;72.37;95595.69;4214534;28;5793;-73
2022/12/10 07:22:23;;;;;;;;;;;;;;;8.26;72.20;95601.75;4214545;28;5706;-73
2022/12/10 07:24:26;;;;;;;;;;;;;;;8.28;72.15;95605.81;4214421;28;5705;-73
2022/12/10 07:26:30;;;;;;;;;;;;;;;8.33;71.84;95608.59;4208463;28;5693;-73
2022/12/10 07:28:33;;;;;;;;;;;;;;;8.37;71.96;95615.09;4204685;28;5700;-73
2022/12/10 07:30:40;;;;;;;;;;;;;;;8.38;71.52;95611.47;4213568;28;5805;-73
2022/12/10 07:32:42;;;;;;;;;;;;;;;8.38;71.63;95614.09;4214086;28;5652;-73
2022/12/10 07:34:45;;;;;;;;;;;;;;;8.41;71.45;95615.50;4205829;28;6482;-73
2022/12/10 07:36:49;;;;;;;;;;;;;;;8.42;71.16;95617.94;4214212;28;5709;-73
2022/12/10 07:38:53;;;;;;;;;;;;;;;8.43;70.70;95621.38;4213966;28;5698;-73
2022/12/10 07:40:55;;;;;;;;;;;;;;;8.42;70.77;95612.66;4213840;28;5686;-72
2022/12/10 07:42:58;;;;;;;;;;;;;;;8.33;70.49;95608.59;4214393;28;5768;-72
2022/12/10 07:45:01;;;;;;;;;;;;;;;8.22;69.81;95616.34;4213998;28;5705;-73
2022/12/10 07:47:04;;;;;;;;;;;;;;;8.07;69.88;95609.50;4214139;28;5679;-73
2022/12/10 07:49:07;;;;;;;;;;;;;;;7.98;70.18;95615.19;4212233;28;5696;-73
2022/12/10 07:51:10;;;;;;;;;;;;;;;7.99;70.02;95622.88;4211302;28;5705;-72
2022/12/10 07:53:14;;;;;;;;;;;;;;;7.94;69.37;95620.06;4202152;28;5877;-72
2022/12/10 07:55:18;;;;;;;;;;;;;;;7.84;68.91;95627.56;4206485;28;5714;-72
2022/12/10 07:57:21;;;;;;;;;;;;;;;7.76;69.30;95639.09;4208110;28;5706;-73
2022/12/10 07:59:24;;;;;;;;;;;;;;;7.71;68.99;95632.84;4199730;28;5706;-72
2022/12/10 08:01:27;;;;;;;;;;;;;;;7.71;69.03;95635.47;4207672;28;5815;-72
2022/12/10 08:03:30;;;;;;;;;;;;;;;7.74;68.43;95635.06;4217403;28;5638;-72
2022/12/10 08:05:32;;;;;;;;;;;;;;;7.70;68.48;95649.59;4216213;28;5631;-72
2022/12/10 08:07:35;;;;;;;;;;;;;;;7.67;68.44;95645.56;4218496;28;5612;-72
2022/12/10 08:09:39;;;;;;;;;;;;;;;7.62;67.86;95644.56;4219120;28;5711;-72
2022/12/10 08:11:42;;;;;;;;;;;;;;;7.50;67.12;95660.94;4215197;28;5690;-73
2022/12/10 08:13:45;;;;;;;;;;;;;;;7.27;66.75;95656.06;4216187;28;5790;-72
2022/12/10 08:15:53;;;;;;;;;;;;;;;7.13;67.56;95648.34;4216147;28;5616;-72
2022/12/10 08:17:56;;;;;;;;;;;;;;;7.10;67.12;95661.88;4202119;28;5827;-72
2022/12/10 08:19:59;;;;;;;;;;;;;;;6.95;67.06;95669.94;4218826;28;5612;-71
2022/12/10 08:22:02;;;;;;;;;;;;;;;6.78;67.32;95669.47;4218857;28;5687;-72
2022/12/10 08:24:05;;;;;;;;;;;;;;;6.69;67.70;95662.78;4218228;28;5854;-73
2022/12/10 08:26:12;;;;;;;;;;;;;;;6.71;67.87;95666.03;4213078;28;5695;-72
2022/12/10 08:28:15;;;;;;;;;;;;;;;6.76;67.88;95674.09;4217573;28;5112;-72
2022/12/10 08:30:18;;;;;;;;;;;;;;;6.74;67.60;95672.69;4216129;28;7704;-72
2022/12/10 08:32:20;;;;;;;;;;;;;;;6.68;67.29;95666.41;4215949;28;5755;-72
2022/12/10 08:34:23;;;;;;;;;;;;;;;6.67;67.43;95683.16;4216918;28;6480;-72
2022/12/10 08:36:26;;;;;;;;;;;;;;;6.61;67.03;95671.63;4217799;28;5668;-72
2022/12/10 08:38:28;;;;;;;;;;;;;;;6.54;67.30;95683.09;4216620;28;5621;-72
2022/12/10 08:40:31;;;;;;;;;;;;;;;6.51;67.55;95692.19;4216640;28;5600;-73
2022/12/10 08:42:35;;;;;;;;;;;;;;;6.63;67.55;95687.19;4215967;28;5692;-73
2022/12/10 08:44:38;;;;;;;;;;;;;;;6.64;67.11;95692.25;4211060;28;5819;-73
2022/12/10 08:46:41;;;;;;;;;;;;;;;6.55;66.58;95701.28;4217108;28;5707;-73
2022/12/10 08:48:44;;;;;;;;;;;;;;;6.41;66.83;95702.22;4217611;28;5700;-73
2022/12/10 08:50:46;;;;;;;;;;;;;;;6.31;66.83;95702.56;4209517;28;6125;-73
2022/12/10 08:52:50;;;;;;;;;;;;;;;6.19;66.88;95714.63;4217568;28;6285;-72
2022/12/10 08:54:52;;;;;;;;;;;;;;;6.11;66.65;95710.31;4217015;28;5608;-72
2022/12/10 08:56:55;;;;;;;;;;;;;;;5.97;66.83;95715.66;4217348;28;5770;-72
2022/12/10 08:58:59;;;;;;;;;;;;;;;5.87;66.78;95720.41;4199080;28;5705;-72
2022/12/10 09:01:07;;;;;;;;;;;;;;;5.75;67.04;95723.53;4217533;28;5623;-72
2022/12/10 09:03:10;;;;;;;;;;;;;;;5.68;67.33;95727.94;4217146;28;5738;-72
2022/12/10 09:05:13;;;;;;;;;;;;;;;5.69;67.31;95723.50;4216906;28;5616;-72
2022/12/10 09:07:16;;;;;;;;;;;;;;;5.69;67.18;95724.31;4216660;28;5694;-72
2022/12/10 09:09:18;;;;;;;;;;;;;;;5.67;67.31;95726.31;4217370;28;5810;-72
2022/12/10 09:11:24;;;;;;;;;;;;;;;5.72;67.47;95723.09;4216956;28;5625;-72
2022/12/10 09:13:27;;;;;;;;;;;;;;;5.73;67.11;95728.16;4216917;28;5743;-73
2022/12/10 09:15:31;;;;;;;;;;;;;;;5.74;67.53;95726.34;4216134;28;5617;-73
2022/12/10 09:17:35;;;;;;;;;;;;;;;5.76;67.13;95735.63;4216872;28;5616;-72
2022/12/10 09:19:38;;;;;;;;;;;;;;;5.81;67.32;95724.59;4216887;28;5699;-72
2022/12/10 09:21:41;;;;;;;;;;;;;;;5.91;67.15;95729.56;4214955;28;5624;-72
2022/12/10 09:23:44;;;;;;;;;;;;;;;5.92;66.78;95734.59;4214042;28;5603;-73
2022/12/10 09:25:47;;;;;;;;;;;;;;;5.90;66.62;95736.63;4218423;28;5699;-72
2022/12/10 09:27:50;;;;;;;;;;;;;;;5.92;66.90;95739.03;4216588;28;5617;-72
2022/12/10 09:29:52;;;;;;;;;;;;;;;5.92;66.64;95741.66;4216472;28;5706;-73
2022/12/10 09:31:56;;;;;;;;;;;;;;;5.91;66.87;95743.47;4216698;28;6526;-72
2022/12/10 09:33:59;;;;;;;;;;;;;;;5.92;66.41;95755.59;4209640;28;5608;-72
2022/12/10 09:36:05;;;;;;;;;;;;;;;5.88;66.76;95756.13;4216076;28;5683;-72
2022/12/10 09:38:08;;;;;;;;;;;;;;;5.87;66.54;95754.50;4215499;28;5712;-72
2022/12/10 09:40:15;;;;;;;;;;;;;;;5.89;66.35;95755.94;4212275;28;5719;-72
2022/12/10 09:42:30;;;;;;;;;;;;;;;5.92;66.56;95757.41;4212258;28;5635;-71
2022/12/10 09:44:44;;;;;;;;;;;;;;;5.95;66.29;95762.28;4213150;28;5725;-72
2022/12/10 09:46:52;;;;;;;;;;;;;;;6.00;66.30;95771.22;4212977;28;5747;-72
2022/12/10 09:49:05;;;;;;;;;;;;;;;6.04;66.45;95763.75;4216581;28;6301;-72
2022/12/10 09:51:15;;;;;;;;;;;;;;;6.18;66.12;95764.66;4213170;28;5787;-75
2022/12/10 09:53:20;;;;;;;;;;;;;;;6.21;66.16;95767.72;4212847;28;5810;-75
2022/12/10 09:55:31;;;;;;;;;;;;;;;6.20;65.92;95779.22;4216872;28;6313;-76
2022/12/10 09:57:37;;;;;;;;;;;;;;;6.27;65.77;95780.09;4212944;28;5813;-77
2022/12/10 09:59:45;;;;;;;;;;;;;;;6.27;65.69;95784.53;4215671;28;5631;-76
2022/12/10 10:01:50;;;;;;;;;;;;;;;6.30;65.72;95784.13;4208900;28;5776;-76
2022/12/10 10:03:53;;;;;;;;;;;;;;;6.37;65.82;95788.44;4208150;28;5695;-76
2022/12/10 10:05:57;;;;;;;;;;;;;;;6.37;65.47;95791.06;4217445;28;5727;-76
2022/12/10 10:08:02;;;;;;;;;;;;;;;6.24;65.51;95777.84;4214288;28;5676;-76
2022/12/10 10:10:08;;;;;;;;;;;;;;;6.29;65.54;95785.94;4217800;28;5763;-76
2022/12/10 10:12:14;;;;;;;;;;;;;;;6.30;65.76;95790.19;4216757;28;5826;-76
2022/12/10 10:14:23;;;;;;;;;;;;;;;6.37;65.91;95796.31;4216423;28;5734;-76
2022/12/10 10:16:29;;;;;;;;;;;;;;;6.33;65.36;95789.00;4216679;28;5585;-77
2022/12/10 10:18:37;;;;;;;;;;;;;;;6.30;65.47;95784.94;4218206;28;5590;-76
2022/12/10 10:20:40;;;;;;;;;;;;;;;6.33;65.34;95800.31;4214876;28;5624;-76
2022/12/10 10:22:44;;;;;;;;;;;;;;;6.25;65.14;95792.59;4216290;28;5629;-76
2022/12/10 10:24:47;;;;;;;;;;;;;;;6.22;65.42;95800.81;4208260;28;5679;-76
2022/12/10 10:26:53;;;;;;;;;;;;;;;6.31;65.68;95801.50;4215082;28;5607;-76
2022/12/10 10:29:00;;;;;;;;;;;;;;;6.39;65.43;95807.44;4210508;28;5790;-76
2022/12/10 10:31:03;;;;;;;;;;;;;;;6.41;65.26;95812.50;4217483;28;5699;-76
2022/12/10 10:33:10;;;;;;;;;;;;;;;6.48;65.24;95807.31;4217556;28;5624;-76
2022/12/10 10:35:23;;;;;;;;;;;;;;;6.56;65.25;95799.25;4217506;28;5601;-76
2022/12/10 10:37:29;;;;;;;;;;;;;;;6.63;65.09;95805.38;4217534;28;5604;-76
2022/12/10 10:39:35;;;;;;;;;;;;;;;6.67;65.32;95802.16;4197965;28;5840;-76
2022/12/10 10:41:39;;;;;;;;;;;;;;;6.68;64.74;95797.72;4208175;28;5703;-76
2022/12/10 10:43:44;;;;;;;;;;;;;;;6.66;65.04;95804.97;4216094;28;5612;-75
2022/12/10 10:45:50;;;;;;;;;;;;;;;6.66;64.43;95797.91;4216484;28;5783;-76
2022/12/10 10:48:05;;;;;;;;;;;;;;;6.67;64.68;95806.59;4213168;28;5605;-76
2022/12/10 10:50:25;;;;;;;;;;;;;;;6.65;64.69;95795.47;4217182;28;5604;-76
2022/12/10 10:52:29;;;;;;;;;;;;;;;6.65;64.56;95793.66;4218910;28;5656;-76
2022/12/10 10:54:38;;;;;;;;;;;;;;;6.60;64.55;95790.81;4215015;28;5700;-76
2022/12/10 10:56:43;;;;;;;;;;;;;;;6.66;64.38;95799.72;4214746;28;5617;-76
2022/12/10 10:58:54;;;;;;;;;;;;;;;6.58;63.64;95792.03;4215265;28;5608;-76
2022/12/10 11:01:00;;;;;;;;;;;;;;;6.51;64.10;95785.91;4210897;28;5612;-76
2022/12/10 11:03:07;;;;;;;;;;;;;;;6.46;63.69;95785.69;4185444;28;5719;-76
2022/12/10 11:05:18;;;;;;;;;;;;;;;6.50;64.04;95795.59;4212515;28;5840;-77
2022/12/10 11:07:26;;;;;;;;;;;;;;;6.53;63.61;95795.22;4186464;28;5829;-76
2022/12/10 11:09:33;;;;;;;;;;;;;;;6.50;63.28;95797.41;4215657;28;5624;-76
2022/12/10 11:11:40;;;;;;;;;;;;;;;6.50;63.75;95800.84;4217221;28;5096;-76
2022/12/10 11:13:44;;;;;;;;;;;;;;;6.56;63.65;95799.25;4216652;28;8416;-77
2022/12/10 11:15:56;;;;;;;;;;;;;;;6.67;63.44;95806.59;4208530;28;5715;-76
2022/12/10 11:17:59;;;;;;;;;;;;;;;6.62;63.23;95801.13;4216908;28;5699;-76
2022/12/10 11:20:17;;;;;;;;;;;;;;;6.58;63.17;95798.09;4217434;28;5722;-76
2022/12/10 11:22:22;;;;;;;;;;;;;;;6.56;63.46;95809.75;4216649;28;5876;-76
2022/12/10 11:24:27;;;;;;;;;;;;;;;6.59;63.27;95812.84;4216383;28;5805;-77
2022/12/10 11:26:50;;;;;;;;;;;;;;;6.59;63.17;95818.09;4207222;28;6793;-76
2022/12/10 11:29:06;;;;;;;;;;;;;;;6.58;63.01;95826.16;4213682;28;5767;-77
2022/12/10 11:31:30;;;;;;;;;;;;;;;6.62;63.11;95830.00;4206132;28;5715;-75
2022/12/10 11:33:41;;;;;;;;;;;;;;;6.62;62.74;95830.81;4210039;28;5624;-76
2022/12/10 11:35:55;;;;;;;;;;;;;;;6.60;62.70;95832.03;4187068;28;5685;-74
2022/12/10 11:38:06;;;;;;;;;;;;;;;6.58;62.36;95826.16;4204869;28;5792;-78
2022/12/10 11:40:25;;;;;;;;;;;;;;;6.54;62.62;95832.78;4209586;28;5620;-75
2022/12/10 11:42:38;;;;;;;;;;;;;;;6.56;62.54;95833.38;4218070;28;6033;-75
2022/12/10 11:44:48;;;;;;;;;;;;;;;6.61;62.38;95836.28;4208533;28;6449;-81
2022/12/10 11:47:05;;;;;;;;;;;;;;;6.55;61.93;95837.84;4211899;28;5619;-77
2022/12/10 11:49:22;;;;;;;;;;;;;;;6.46;62.06;95848.69;4205352;28;5774;-77
2022/12/10 11:51:33;;;;;;;;;;;;;;;6.49;62.28;95846.50;4216718;28;5609;-77
2022/12/10 11:53:51;;;;;;;;;;;;;;;6.58;62.03;95840.09;4219548;28;5096;-76
2022/12/10 11:56:04;;;;;;;;;;;;;;;6.65;61.93;95846.19;4219714;28;7695;-77
2022/12/10 11:58:26;;;;;;;;;;;;;;;6.72;61.77;95848.88;4220182;28;5092;-76
2022/12/10 12:00:46;;;;;;;;;;;;;;;6.67;61.20;95849.44;4221613;28;7787;-76
2022/12/10 12:03:15;;;;;;;;;;;;;;;6.72;61.50;95854.94;4222004;28;5785;-76
2022/12/10 12:05:30;;;;;;;;;;;;;;;6.81;61.41;95866.13;4209240;28;5612;-76
2022/12/10 12:07:42;;;;;;;;;;;;;;;6.88;61.19;95859.06;4219860;28;5626;-75
2022/12/10 12:09:53;;;;;;;;;;;;;;;6.93;61.05;95858.50;4219286;28;5729;-76
2022/12/10 12:12:13;;;;;;;;;;;;;;;6.86;60.84;95858.47;4212548;28;5699;-76
2022/12/10 12:14:24;;;;;;;;;;;;;;;6.85;60.92;95866.53;4215434;28;5779;-77
2022/12/10 12:16:30;;;;;;;;;;;;;;;6.85;60.73;95866.53;4219054;28;5691;-76
2022/12/10 12:18:43;;;;;;;;;;;;;;;6.86;61.05;95873.41;4219073;28;5729;-76
2022/12/10 12:20:51;;;;;;;;;;;;;;;6.91;60.74;95877.09;4219267;28;5703;-76
2022/12/10 12:22:59;;;;;;;;;;;;;;;6.87;60.51;95875.84;4213805;28;5723;-76
2022/12/10 12:25:06;;;;;;;;;;;;;;;6.90;60.62;95877.25;4208517;28;6003;-76
2022/12/10 12:27:18;;;;;;;;;;;;;;;6.84;60.22;95878.84;4215899;28;5652;-77
2022/12/10 12:29:26;;;;;;;;;;;;;;;6.80;60.54;95882.88;4216377;28;5613;-74
2022/12/10 12:31:35;;;;;;;;;;;;;;;6.71;59.99;95884.03;4217417;28;5656;-74
2022/12/10 12:33:46;;;;;;;;;;;;;;;6.58;60.02;95887.38;4217462;28;5854;-77
2022/12/10 12:35:52;;;;;;;;;;;;;;;6.48;60.06;95886.06;4210127;28;5096;-74
2022/12/10 12:38:00;;;;;;;;;;;;;;;6.46;60.08;95895.94;4218822;28;5700;-84
2022/12/10 12:40:12;;;;;;;;;;;;;;;6.49;60.08;95885.88;4218083;28;5605;-83
2022/12/10 12:42:23;;;;;;;;;;;;;;;6.47;59.84;95895.75;4218555;28;5632;-87
2022/12/10 12:44:33;;;;;;;;;;;;;;;6.45;59.88;95892.47;4218770;28;6436;-82
2022/12/10 12:46:42;;;;;;;;;;;;;;;6.48;59.86;95897.38;4218656;28;5633;-87
2022/12/10 12:48:54;;;;;;;;;;;;;;;6.45;59.72;95907.44;4218594;28;6276;-83
2022/12/10 12:51:01;;;;;;;;;;;;;;;6.44;59.90;95904.00;4217846;28;5711;-85
2022/12/10 12:53:12;;;;;;;;;;;;;;;6.55;59.75;95915.81;4218696;28;5703;-88
2022/12/10 12:55:20;;;;;;;;;;;;;;;6.58;59.33;95920.69;4218356;28;5679;-81
2022/12/10 12:57:32;;;;;;;;;;;;;;;6.62;59.48;95927.19;4217959;28;5631;-80
2022/12/10 12:59:56;;;;;;;;;;;;;;;6.65;59.57;95919.72;4218208;28;5704;-83
2022/12/10 13:02:08;;;;;;;;;;;;;;;6.70;59.17;95922.63;4217664;28;5631;-71
2022/12/10 13:04:12;;;;;;;;;;;;;;;6.70;59.08;95916.56;4217264;28;5604;-72
2022/12/10 13:06:22;;;;;;;;;;;;;;;6.74;58.98;95924.84;4217119;28;5624;-72
2022/12/10 13:08:30;;;;;;;;;;;;;;;6.75;59.00;95922.03;4217394;28;5624;-72
2022/12/10 13:10:45;;;;;;;;;;;;;;;6.78;58.88;95926.09;4217114;28;5695;-72
2022/12/10 13:12:50;;;;;;;;;;;;;;;6.83;58.91;95936.84;4217055;28;5613;-72
2022/12/10 13:15:04;;;;;;;;;;;;;;;6.82;58.71;95933.41;4217451;28;5778;-72
2022/12/10 13:17:27;;;;;;;;;;;;;;;6.84;58.75;95938.47;4217201;28;6074;-71
2022/12/10 13:19:32;;;;;;;;;;;;;;;6.85;58.74;95943.53;4217074;28;5624;-72
2022/12/10 13:21:34;;;;;;;;;;;;;;;6.89;58.82;95944.78;4216788;28;5715;-76
2022/12/10 13:23:50;;;;;;;;;;;;;;;6.92;58.68;95952.28;4217220;28;5639;-74
2022/12/10 13:25:58;;;;;;;;;;;;;;;6.92;58.49;95957.53;4216951;28;5632;-74
2022/12/10 13:28:21;;;;;;;;;;;;;;;6.96;58.78;95958.78;4216739;28;5695;-76
2022/12/10 13:30:35;;;;;;;;;;;;;;;6.99;58.54;95961.00;4215531;28;5695;-73
2022/12/10 13:32:48;;;;;;;;;;;;;;;6.98;58.24;95956.75;4216969;28;5727;-73
2022/12/10 13:35:16;;;;;;;;;;;;;;;6.91;58.03;95965.63;4213791;28;5827;-71
2022/12/10 13:37:30;;;;;;;;;;;;;;;6.83;58.28;95963.13;4211652;28;5734;-72
2022/12/10 13:39:35;;;;;;;;;;;;;;;6.76;57.64;95970.94;4214547;28;5758;-74
2022/12/10 13:46:32;;;;;;;;;;;;;;;6.59;58.12;95966.97;4216948;28;5723;-73
2022/12/10 13:48:38;;;;;;;;;;;;;;;6.60;57.82;95968.59;4215911;28;5829;-73
2022/12/10 13:50:46;;;;;;;;;;;;;;;6.57;57.90;95972.41;4216614;28;5613;-73
2022/12/10 13:53:02;;;;;;;;;;;;;;;6.59;58.30;95977.47;4216475;28;5684;-73
2022/12/10 13:55:32;;;;;;;;;;;;;;;6.67;57.98;95979.94;4216433;28;5774;-73
2022/12/10 13:57:51;;;;;;;;;;;;;;;6.74;58.03;95991.34;4211953;28;5737;-72
2022/12/10 14:00:04;;;;;;;;;;;;;;;6.76;57.81;95988.50;4216545;28;5617;-73
2022/12/10 14:02:33;;;;;;;;;;;;;;;6.80;58.00;95984.53;4215568;28;5695;-73
2022/12/10 14:05:00;;;;;;;;;;;;;;;6.84;57.41;95991.84;4216171;28;5888;-72
2022/12/10 14:07:03;;;;;;;;;;;;;;;6.74;57.71;95995.78;4210687;28;5617;-72
2022/12/10 14:09:12;;;;;;;;;;;;;;;6.73;57.34;96000.22;4215859;28;5616;-72
2022/12/10 14:11:21;;;;;;;;;;;;;;;6.68;57.67;95998.16;4216026;28;5707;-72
2022/12/10 14:13:36;;;;;;;;;;;;;;;6.74;57.59;95998.41;4216076;28;5616;-72
2022/12/10 14:15:40;;;;;;;;;;;;;;;6.70;57.46;96008.47;4219235;28;5703;-72
2022/12/10 14:17:45;;;;;;;;;;;;;;;6.74;57.70;96007.09;4216044;28;5620;-72
2022/12/10 14:19:51;;;;;;;;;;;;;;;6.84;57.43;96012.03;4220472;28;5615;-72
2022/12/10 14:21:54;;;;;;;;;;;;;;;6.82;57.36;96012.22;4208207;28;5647;-72
2022/12/10 14:23:57;;;;;;;;;;;;;;;6.85;57.32;96008.41;4214966;28;5620;-72
2022/12/10 14:26:05;;;;;;;;;;;;;;;6.88;57.39;96014.09;4219384;28;5604;-73
2022/12/10 14:28:13;;;;;;;;;;;;;;;6.83;57.11;96008.59;4211700;28;5743;-72
2022/12/10 14:30:20;;;;;;;;;;;;;;;6.78;57.20;96018.84;4202753;28;5716;-72
2022/12/10 14:32:30;;;;;;;;;;;;;;;6.69;57.00;96009.47;4211414;28;6329;-72
2022/12/10 14:34:35;;;;;;;;;;;;;;;6.67;57.18;96016.72;4205425;28;5640;-79
2022/12/10 14:36:45;;;;;;;;;;;;;;;6.66;57.44;96023.78;4206814;28;5786;-75
2022/12/10 14:38:48;;;;;;;;;;;;;;;6.63;57.06;96015.47;4210108;28;6968;-71
2022/12/10 14:40:51;;;;;;;;;;;;;;;6.66;57.15;96025.59;4208375;28;5699;-72
2022/12/10 14:43:07;;;;;;;;;;;;;;;6.69;57.02;96026.06;4210271;28;5695;-72
2022/12/10 14:45:16;;;;;;;;;;;;;;;6.69;56.78;96027.88;4210367;28;5100;-72
2022/12/10 14:47:21;;;;;;;;;;;;;;;6.63;56.73;96036.47;4206659;28;7773;-72
2022/12/10 14:49:24;;;;;;;;;;;;;;;6.57;56.74;96032.81;4214971;28;5702;-73
2022/12/10 14:51:34;;;;;;;;;;;;;;;6.48;56.61;96038.34;4208345;28;5730;-72
2022/12/10 14:53:37;;;;;;;;;;;;;;;6.54;56.75;96037.59;4197368;28;5816;-72
2022/12/10 14:55:40;;;;;;;;;;;;;;;6.59;56.73;96027.38;4197397;28;5852;-72
2022/12/10 14:57:49;;;;;;;;;;;;;;;6.57;56.54;96038.06;4211020;28;5636;-73
2022/12/10 15:00:03;;;;;;;;;;;;;;;6.52;56.65;96035.16;4204141;28;5626;-73
2022/12/10 15:02:15;;;;;;;;;;;;;;;6.61;56.65;96033.25;4212268;28;5873;-73
2022/12/10 15:04:20;;;;;;;;;;;;;;;6.65;56.42;96030.03;4209186;28;5668;-73
2022/12/10 15:06:35;;;;;;;;;;;;;;;6.71;56.14;96033.75;4215409;28;5621;-73
2022/12/10 15:08:38;;;;;;;;;;;;;;;6.70;56.16;96042.63;4208775;28;6023;-74
2022/12/10 15:10:43;;;;;;;;;;;;;;;6.67;56.15;96035.09;4209104;28;5655;-73
2022/12/10 15:12:49;;;;;;;;;;;;;;;6.70;56.24;96040.81;4207231;28;5612;-75
2022/12/10 15:14:54;;;;;;;;;;;;;;;6.72;56.06;96043.25;4210380;28;5826;-76
2022/12/10 15:16:58;;;;;;;;;;;;;;;6.75;56.20;96045.50;4216661;28;5864;-75
2022/12/10 15:19:17;;;;;;;;;;;;;;;6.74;55.82;96040.44;4214992;28;5815;-70
2022/12/10 15:21:23;;;;;;;;;;;;;;;6.66;55.77;96041.34;4218238;28;5622;-69
2022/12/10 15:23:33;;;;;;;;;;;;;;;6.67;56.13;96042.97;4213301;28;5694;-69
2022/12/10 15:25:45;;;;;;;;;;;;;;;6.69;56.09;96027.88;4211310;28;5604;-77
2022/12/10 15:27:56;;;;;;;;;;;;;;;6.76;56.00;96041.88;4203386;28;5714;-76
2022/12/10 15:30:00;;;;;;;;;;;;;;;6.80;55.78;96039.69;4212480;28;5718;-75
2022/12/10 15:32:14;;;;;;;;;;;;;;;6.80;55.73;96037.06;4208973;28;5706;-75
2022/12/10 15:34:17;;;;;;;;;;;;;;;6.80;55.65;96039.69;4209019;28;5621;-72
2022/12/10 15:36:32;;;;;;;;;;;;;;;6.79;55.65;96035.41;4211751;28;5613;-71
2022/12/10 15:38:38;;;;;;;;;;;;;;;6.83;55.81;96037.50;4206163;28;5714;-72
2022/12/10 15:40:41;;;;;;;;;;;;;;;6.85;55.67;96043.38;4198762;28;6037;-72
2022/12/10 15:42:45;;;;;;;;;;;;;;;6.88;55.37;96037.72;4215026;28;6863;-74
2022/12/10 15:44:49;;;;;;;;;;;;;;;6.85;55.21;96046.00;4202587;28;5684;-71
2022/12/10 15:46:59;;;;;;;;;;;;;;;6.81;55.60;96043.94;4204088;28;5812;-73
2022/12/10 15:49:01;;;;;;;;;;;;;;;6.86;55.41;96050.25;4211073;28;5675;-73
2022/12/10 15:51:04;;;;;;;;;;;;;;;6.88;55.53;96050.88;4208051;28;5898;-72
2022/12/10 15:53:10;;;;;;;;;;;;;;;6.90;55.28;96051.50;4214962;28;5600;-79
2022/12/10 15:55:15;;;;;;;;;;;;;;;6.92;55.24;96051.31;4211036;28;5691;-83
2022/12/10 15:57:20;;;;;;;;;;;;;;;6.96;55.19;96056.00;4218213;28;5879;-82
2022/12/10 15:59:23;;;;;;;;;;;;;;;6.90;55.15;96048.88;4219118;28;5608;-82
2022/12/10 16:01:26;;;;;;;;;;;;;;;6.91;55.17;96054.97;4209965;28;6191;-82
2022/12/10 16:03:30;;;;;;;;;;;;;;;6.93;54.93;96048.50;4212069;28;5600;-82
2022/12/10 16:05:35;;;;;;;;;;;;;;;6.93;55.03;96048.50;4207501;28;5628;-83
2022/12/10 16:07:38;;;;;;;;;;;;;;;6.92;55.14;96053.94;4205519;28;5651;-83
2022/12/10 16:09:41;;;;;;;;;;;;;;;6.93;55.07;96051.13;4212486;28;5794;-83
2022/12/10 16:11:46;;;;;;;;;;;;;;;6.94;55.06;96052.75;4216635;28;5632;-76
2022/12/10 16:13:52;;;;;;;;;;;;;;;6.88;54.81;96055.31;4192597;28;5685;-76
2022/12/10 16:15:57;;;;;;;;;;;;;;;6.87;54.95;96059.75;4190870;28;5812;-75
2022/12/10 16:18:00;;;;;;;;;;;;;;;6.89;54.83;96057.75;4188224;28;5732;-75
2022/12/10 16:20:20;;;;;;;;;;;;;;;6.94;54.96;96060.66;4207407;28;5635;-75
2022/12/10 16:22:23;;;;;;;;;;;;;;;6.99;54.84;96063.50;4208680;28;5683;-74
2022/12/10 16:24:26;;;;;;;;;;;;;;;7.03;54.77;96063.16;4206750;28;5722;-75
2022/12/10 16:26:28;;;;;;;;;;;;;;;7.01;54.85;96072.00;4221280;27;5692;-75
2022/12/10 16:28:33;;;;;;;;;;;;;;;7.03;54.49;96069.22;4213112;28;5597;-75
2022/12/10 16:30:40;;;;;;;;;;;;;;;7.03;54.51;96071.03;4210238;28;5116;-75
2022/12/10 16:32:50;;;;;;;;;;;;;;;6.95;54.50;96077.22;4205154;28;7695;-75
2022/12/10 16:34:53;;;;;;;;;;;;;;;6.96;54.42;96086.72;4211072;28;6400;-76
2022/12/10 16:37:01;;;;;;;;;;;;;;;6.97;54.35;96083.91;4196145;28;5986;-75
2022/12/10 16:39:05;;;;;;;;;;;;;;;6.98;54.45;96074.22;4205545;28;5605;-74
2022/12/10 16:41:16;;;;;;;;;;;;;;;6.90;54.49;96080.41;4207658;28;5421;-75
2022/12/10 16:43:20;;;;;;;;;;;;;;;6.93;54.13;96074.78;4208318;28;7062;-75
2022/12/10 16:45:27;;;;;;;;;;;;;;;6.94;54.13;96080.84;4207118;28;5872;-75
2022/12/10 16:47:30;;;;;;;;;;;;;;;6.97;54.11;96083.09;4212892;28;5718;-75
2022/12/10 16:49:33;;;;;;;;;;;;;;;7.02;54.12;96088.59;4206262;28;5625;-75
2022/12/10 16:51:36;;;;;;;;;;;;;;;7.05;53.84;96087.44;4207884;28;5687;-76
2022/12/10 16:53:39;;;;;;;;;;;;;;;7.07;53.94;96095.94;4206926;28;6018;-75
2022/12/10 16:55:42;;;;;;;;;;;;;;;7.07;53.87;96099.38;4185205;28;6687;-75
2022/12/10 16:57:45;;;;;;;;;;;;;;;6.99;53.78;96096.84;4206212;28;5800;-75
2022/12/10 16:59:48;;;;;;;;;;;;;;;7.01;53.97;96100.91;4203970;28;5635;-74
2022/12/10 17:01:52;;;;;;;;;;;;;;;7.01;53.66;96095.66;4208025;28;5866;-74
2022/12/10 17:03:58;;;;;;;;;;;;;;;7.01;53.77;96098.28;4203779;28;5646;-75
2022/12/10 17:06:03;;;;;;;;;;;;;;;7.07;53.70;96095.94;4208454;28;5658;-74
2022/12/10 17:08:06;;;;;;;;;;;;;;;7.10;53.40;96095.53;4203414;28;5766;-75
2022/12/10 17:10:11;;;;;;;;;;;;;;;7.11;53.60;96097.16;4202353;28;5813;-75
2022/12/10 17:12:14;;;;;;;;;;;;;;;7.09;53.47;96096.56;4206624;28;5685;-74
2022/12/10 17:14:22;;;;;;;;;;;;;;;7.10;53.51;96092.91;4203073;28;6455;-75
2022/12/10 17:16:25;;;;;;;;;;;;;;;7.07;53.46;96091.47;4203820;28;5686;-75
2022/12/10 17:18:29;;;;;;;;;;;;;;;7.09;53.32;96094.72;4202813;28;5786;-75
2022/12/10 17:20:32;;;;;;;;;;;;;;;7.04;53.39;96093.69;4203162;28;5739;-75
2022/12/10 17:22:35;;;;;;;;;;;;;;;7.05;53.11;96097.94;4206112;28;5794;-75
2022/12/10 17:24:38;;;;;;;;;;;;;;;7.08;53.08;96097.56;4202033;28;5741;-74
2022/12/10 17:26:44;;;;;;;;;;;;;;;7.08;53.16;96103.63;4209179;28;5719;-74
2022/12/10 17:28:47;;;;;;;;;;;;;;;7.12;53.09;96110.13;4214765;28;5698;-74
2022/12/10 17:30:50;;;;;;;;;;;;;;;7.13;53.02;96100.41;4207011;28;5702;-74
2022/12/10 17:32:53;;;;;;;;;;;;;;;7.13;53.07;96103.03;4204989;28;5762;-74
2022/12/10 17:34:57;;;;;;;;;;;;;;;7.14;53.00;96104.69;4206930;28;5613;-74
2022/12/10 17:37:10;;;;;;;;;;;;;;;7.12;52.92;96101.41;4201063;28;5761;-75
2022/12/10 17:39:15;;;;;;;;;;;;;;;7.13;52.80;96108.31;4214282;28;5821;-74
2022/12/10 17:41:24;;;;;;;;;;;;;;;7.05;52.62;96103.19;4213287;28;5692;-74
2022/12/10 17:43:27;;;;;;;;;;;;;;;7.00;52.59;96107.19;4213177;28;6465;-75
2022/12/10 17:45:30;;;;;;;;;;;;;;;7.01;53.05;96100.91;4220602;28;5803;-74
2022/12/10 17:47:35;;;;;;;;;;;;;;;7.03;52.77;96103.38;4213935;28;5828;-74
2022/12/10 17:49:38;;;;;;;;;;;;;;;7.06;52.71;96102.19;4213695;28;5754;-74
2022/12/10 17:51:43;;;;;;;;;;;;;;;6.99;52.38;96097.66;4215002;28;5616;-75
2022/12/10 17:53:46;;;;;;;;;;;;;;;6.96;52.65;96105.94;4203084;28;5767;-74
2022/12/10 17:55:55;;;;;;;;;;;;;;;6.99;52.57;96108.19;4205775;28;5634;-74
2022/12/10 17:57:58;;;;;;;;;;;;;;;7.01;52.33;96103.53;4209117;28;6459;-74
2022/12/10 18:00:01;;;;;;;;;;;;;;;7.01;52.45;96108.00;4215429;28;5624;-74
2022/12/10 18:02:04;;;;;;;;;;;;;;;6.98;52.55;96106.56;4208192;28;5607;-74
2022/12/10 18:04:07;;;;;;;;;;;;;;;7.01;52.41;96111.44;4205198;28;5972;-75
2022/12/10 18:06:15;;;;;;;;;;;;;;;7.05;52.39;96119.78;4210658;28;5703;-74
2022/12/10 18:08:22;;;;;;;;;;;;;;;7.03;52.05;96106.00;4210236;28;5902;-74
2022/12/10 18:10:29;;;;;;;;;;;;;;;7.04;52.35;96104.19;4207746;28;5692;-75
2022/12/10 18:12:32;;;;;;;;;;;;;;;7.06;52.32;96115.31;4208332;28;5800;-75
2022/12/10 18:14:34;;;;;;;;;;;;;;;7.04;52.08;96120.78;4204869;28;5730;-74
2022/12/10 18:16:37;;;;;;;;;;;;;;;7.01;52.15;96118.50;4212256;28;5685;-74
2022/12/10 18:18:40;;;;;;;;;;;;;;;7.04;52.16;96119.97;4211979;28;5592;-75
2022/12/10 18:20:44;;;;;;;;;;;;;;;7.06;52.05;96120.59;4213029;28;5680;-74
2022/12/10 18:22:47;;;;;;;;;;;;;;;7.04;51.91;96122.59;4205728;28;5703;-74
2022/12/10 18:24:51;;;;;;;;;;;;;;;7.01;52.07;96129.00;4205326;28;5786;-73
2022/12/10 18:26:54;;;;;;;;;;;;;;;7.01;52.21;96118.50;4206843;28;5707;-68